sensor_id;sensor_type;location;lat;lon;timestamp;pressure;altitude;pressure_sealevel;temperature;humidity
2184;BME280;1098;48.940;8.962;2022-09-01T00:00:10;98843.91;;;15.05;100.00
2184;BME280;1098;48.940;8.962;2022-09-01T00:02:40;98839.28;;;15.05;100.00
2184;BME280;1098;48.940;8.962;2022-09-01T00:05:11;98839.78;;;15.02;100.00
2184;BME280;1098;48.940;8.962;2022-09-01T00:07:41;98836.41;;;15.12;100.00
2184;BME280;1098;48.940;8.962;2022-09-01T00:10:10;98831.47;;;15.09;100.00
2184;BME280;1098;48.940;8.962;2022-09-01T00:12:39;98842.25;;;15.04;100.00
2184;BME280;1098;48.940;8.962;2022-09-01T00:15:09;98833.91;;;15.44;100.00
2184;BME280;1098;48.940;8.962;2022-09-01T00:17:38;98837.31;;;15.01;100.00
2184;BME280;1098;48.940;8.962;2022-09-01T00:20:08;98843.81;;;15.00;100.00
2184;BME280;1098;48.940;8.962;2022-09-01T00:22:37;98846.53;;;15.00;100.00
2184;BME280;1098;48.940;8.962;2022-09-01T00:25:06;98843.81;;;15.00;100.00
2184;BME280;1098;48.940;8.962;2022-09-01T00:27:34;98852.66;;;14.90;100.00
2184;BME280;1098;48.940;8.962;2022-09-01T00:30:03;98855.63;;;15.05;100.00
2184;BME280;1098;48.940;8.962;2022-09-01T00:32:32;98855.38;;;15.07;100.00
2184;BME280;1098;48.940;8.962;2022-09-01T00:35:01;98834.56;;;14.84;100.00
2184;BME280;1098;48.940;8.962;2022-09-01T00:37:29;98849.16;;;14.78;100.00
2184;BME280;1098;48.940;8.962;2022-09-01T00:39:57;98855.94;;;14.75;100.00
2184;BME280;1098;48.940;8.962;2022-09-01T00:42:25;98857.72;;;14.70;100.00
2184;BME280;1098;48.940;8.962;2022-09-01T00:44:53;98867.44;;;14.66;100.00
2184;BME280;1098;48.940;8.962;2022-09-01T00:47:21;98845.47;;;14.56;100.00
2184;BME280;1098;48.940;8.962;2022-09-01T00:49:50;98859.19;;;14.61;100.00
2184;BME280;1098;48.940;8.962;2022-09-01T00:52:19;98862.06;;;14.54;100.00
2184;BME280;1098;48.940;8.962;2022-09-01T00:54:49;98856.88;;;14.53;100.00
2184;BME280;1098;48.940;8.962;2022-09-01T00:57:19;98853.91;;;14.54;100.00
2184;BME280;1098;48.940;8.962;2022-09-01T00:59:48;98851.44;;;14.53;100.00
2184;BME280;1098;48.940;8.962;2022-09-01T01:02:19;98860.19;;;14.55;100.00
2184;BME280;1098;48.940;8.962;2022-09-01T01:04:48;98862.34;;;14.41;100.00
2184;BME280;1098;48.940;8.962;2022-09-01T01:07:20;98867.16;;;14.39;100.00
2184;BME280;1098;48.940;8.962;2022-09-01T01:09:49;98861.88;;;14.32;100.00
2184;BME280;1098;48.940;8.962;2022-09-01T01:12:18;98861.13;;;14.37;100.00
2184;BME280;1098;48.940;8.962;2022-09-01T01:14:46;98861.88;;;14.44;100.00
2184;BME280;1098;48.940;8.962;2022-09-01T01:17:16;98864.84;;;14.31;100.00
2184;BME280;1098;48.940;8.962;2022-09-01T01:19:45;98869.38;;;14.14;100.00
2184;BME280;1098;48.940;8.962;2022-09-01T01:22:34;98871.34;;;14.30;100.00
2184;BME280;1098;48.940;8.962;2022-09-01T01:25:24;98869.13;;;14.15;100.00
2184;BME280;1098;48.940;8.962;2022-09-01T01:28:02;98869.25;;;14.20;100.00
2184;BME280;1098;48.940;8.962;2022-09-01T01:30:30;98869.00;;;14.22;100.00
2184;BME280;1098;48.940;8.962;2022-09-01T01:33:03;98871.25;;;14.25;100.00
2184;BME280;1098;48.940;8.962;2022-09-01T01:35:31;98868.41;;;14.20;100.00
2184;BME280;1098;48.940;8.962;2022-09-01T01:38:02;98871.03;;;14.15;100.00
2184;BME280;1098;48.940;8.962;2022-09-01T01:40:35;98869.38;;;14.14;100.00
2184;BME280;1098;48.940;8.962;2022-09-01T01:43:04;98870.91;;;14.21;100.00
2184;BME280;1098;48.940;8.962;2022-09-01T01:45:33;98873.44;;;14.39;100.00
2184;BME280;1098;48.940;8.962;2022-09-01T01:48:01;98869.56;;;14.64;100.00
2184;BME280;1098;48.940;8.962;2022-09-01T01:50:34;98868.63;;;14.87;100.00
2184;BME280;1098;48.940;8.962;2022-09-01T01:53:05;98860.56;;;15.08;100.00
2184;BME280;1098;48.940;8.962;2022-09-01T01:55:40;98857.13;;;14.51;100.00
2184;BME280;1098;48.940;8.962;2022-09-01T01:58:09;98866.72;;;13.90;100.00
2184;BME280;1098;48.940;8.962;2022-09-01T02:00:41;98883.53;;;13.64;100.00
2184;BME280;1098;48.940;8.962;2022-09-01T02:03:10;98898.03;;;13.58;100.00
2184;BME280;1098;48.940;8.962;2022-09-01T02:05:43;98891.31;;;13.60;100.00
2184;BME280;1098;48.940;8.962;2022-09-01T02:08:12;98895.78;;;13.31;100.00
2184;BME280;1098;48.940;8.962;2022-09-01T02:10:43;98909.63;;;13.65;100.00
2184;BME280;1098;48.940;8.962;2022-09-01T02:13:14;98905.91;;;13.94;100.00
2184;BME280;1098;48.940;8.962;2022-09-01T02:15:44;98898.47;;;14.13;100.00
2184;BME280;1098;48.940;8.962;2022-09-01T02:18:14;98899.66;;;14.05;100.00
2184;BME280;1098;48.940;8.962;2022-09-01T02:20:44;98892.56;;;14.04;100.00
2184;BME280;1098;48.940;8.962;2022-09-01T02:23:15;98897.53;;;14.07;100.00
2184;BME280;1098;48.940;8.962;2022-09-01T02:25:47;98896.69;;;14.07;100.00
2184;BME280;1098;48.940;8.962;2022-09-01T02:28:37;98897.19;;;13.92;100.00
2184;BME280;1098;48.940;8.962;2022-09-01T02:31:08;98893.31;;;13.76;100.00
2184;BME280;1098;48.940;8.962;2022-09-01T02:33:38;98903.47;;;13.58;100.00
2184;BME280;1098;48.940;8.962;2022-09-01T02:36:12;98900.50;;;13.36;100.00
2184;BME280;1098;48.940;8.962;2022-09-01T02:38:42;98908.78;;;13.29;100.00
2184;BME280;1098;48.940;8.962;2022-09-01T02:41:14;98912.50;;;13.17;100.00
2184;BME280;1098;48.940;8.962;2022-09-01T02:43:47;98915.06;;;13.12;100.00
2184;BME280;1098;48.940;8.962;2022-09-01T02:46:16;98913.53;;;13.04;100.00
2184;BME280;1098;48.940;8.962;2022-09-01T02:48:51;98922.53;;;13.16;100.00
2184;BME280;1098;48.940;8.962;2022-09-01T02:51:20;98927.28;;;13.32;100.00
2184;BME280;1098;48.940;8.962;2022-09-01T02:53:51;98924.81;;;13.43;100.00
2184;BME280;1098;48.940;8.962;2022-09-01T02:56:21;98918.81;;;13.52;100.00
2184;BME280;1098;48.940;8.962;2022-09-01T02:58:52;98921.31;;;13.65;100.00
2184;BME280;1098;48.940;8.962;2022-09-01T03:01:24;98916.81;;;13.59;100.00
2184;BME280;1098;48.940;8.962;2022-09-01T03:03:53;98918.34;;;13.90;100.00
2184;BME280;1098;48.940;8.962;2022-09-01T03:06:22;98916.81;;;13.59;100.00
2184;BME280;1098;48.940;8.962;2022-09-01T03:08:51;98917.88;;;13.58;100.00
2184;BME280;1098;48.940;8.962;2022-09-01T03:11:21;98920.69;;;13.52;100.00
2184;BME280;1098;48.940;8.962;2022-09-01T03:13:50;98911.72;;;13.39;100.00
2184;BME280;1098;48.940;8.962;2022-09-01T03:16:18;98913.00;;;13.25;100.00
2184;BME280;1098;48.940;8.962;2022-09-01T03:18:48;98911.69;;;13.16;100.00
2184;BME280;1098;48.940;8.962;2022-09-01T03:21:17;98915.56;;;13.08;100.00
2184;BME280;1098;48.940;8.962;2022-09-01T03:23:46;98914.72;;;13.08;100.00
2184;BME280;1098;48.940;8.962;2022-09-01T03:26:15;98914.22;;;13.11;100.00
2184;BME280;1098;48.940;8.962;2022-09-01T03:28:46;98919.09;;;13.09;100.00
2184;BME280;1098;48.940;8.962;2022-09-01T03:31:15;98921.06;;;13.02;100.00
2184;BME280;1098;48.940;8.962;2022-09-01T03:33:44;98923.56;;;13.03;100.00
2184;BME280;1098;48.940;8.962;2022-09-01T03:36:20;98916.25;;;13.04;100.00
2184;BME280;1098;48.940;8.962;2022-09-01T03:38:48;98920.25;;;13.01;100.00
2184;BME280;1098;48.940;8.962;2022-09-01T03:41:19;98922.13;;;13.01;100.00
2184;BME280;1098;48.940;8.962;2022-09-01T03:43:50;98924.00;;;13.00;100.00
2184;BME280;1098;48.940;8.962;2022-09-01T03:46:21;98926.50;;;13.02;100.00
2184;BME280;1098;48.940;8.962;2022-09-01T03:48:51;98919.44;;;13.13;100.00
2184;BME280;1098;48.940;8.962;2022-09-01T03:51:21;98922.44;;;13.23;100.00
2184;BME280;1098;48.940;8.962;2022-09-01T03:53:49;98918.91;;;13.22;100.00
2184;BME280;1098;48.940;8.962;2022-09-01T03:56:20;98921.25;;;13.19;100.00
2184;BME280;1098;48.940;8.962;2022-09-01T03:58:51;98913.94;;;13.19;100.00
2184;BME280;1098;48.940;8.962;2022-09-01T04:01:20;98921.16;;;13.25;100.00
2184;BME280;1098;48.940;8.962;2022-09-01T04:03:49;98910.41;;;13.30;100.00
2184;BME280;1098;48.940;8.962;2022-09-01T04:06:22;98919.25;;;13.26;100.00
2184;BME280;1098;48.940;8.962;2022-09-01T04:08:53;98912.53;;;13.28;100.00
2184;BME280;1098;48.940;8.962;2022-09-01T04:11:23;98922.34;;;13.41;100.00
2184;BME280;1098;48.940;8.962;2022-09-01T04:13:53;98909.56;;;13.18;100.00
2184;BME280;1098;48.940;8.962;2022-09-01T04:16:22;98913.91;;;13.07;100.00
2184;BME280;1098;48.940;8.962;2022-09-01T04:19:09;98910.81;;;12.62;100.00
2184;BME280;1098;48.940;8.962;2022-09-01T04:21:46;98914.81;;;12.71;100.00
2184;BME280;1098;48.940;8.962;2022-09-01T04:24:16;98917.13;;;12.86;100.00
2184;BME280;1098;48.940;8.962;2022-09-01T04:26:46;98925.81;;;12.77;100.00
2184;BME280;1098;48.940;8.962;2022-09-01T04:29:17;98913.63;;;12.37;100.00
2184;BME280;1098;48.940;8.962;2022-09-01T04:31:54;98921.91;;;12.72;100.00
2184;BME280;1098;48.940;8.962;2022-09-01T04:34:22;98926.34;;;12.85;100.00
2184;BME280;1098;48.940;8.962;2022-09-01T04:36:50;98925.53;;;12.96;100.00
2184;BME280;1098;48.940;8.962;2022-09-01T04:39:20;98930.59;;;12.93;100.00
2184;BME280;1098;48.940;8.962;2022-09-01T04:41:49;98926.09;;;12.87;100.00
2184;BME280;1098;48.940;8.962;2022-09-01T04:44:19;98930.09;;;12.84;100.00
2184;BME280;1098;48.940;8.962;2022-09-01T04:46:48;98927.75;;;12.88;100.00
2184;BME280;1098;48.940;8.962;2022-09-01T04:49:17;98937.53;;;12.89;100.00
2184;BME280;1098;48.940;8.962;2022-09-01T04:51:51;98925.56;;;13.08;100.00
2184;BME280;1098;48.940;8.962;2022-09-01T04:54:21;98935.81;;;13.06;100.00
2184;BME280;1098;48.940;8.962;2022-09-01T04:56:50;98938.66;;;13.11;100.00
2184;BME280;1098;48.940;8.962;2022-09-01T04:59:22;98931.88;;;13.32;100.00
2184;BME280;1098;48.940;8.962;2022-09-01T05:01:56;98935.31;;;13.27;100.00
2184;BME280;1098;48.940;8.962;2022-09-01T05:04:27;98934.50;;;13.38;100.00
2184;BME280;1098;48.940;8.962;2022-09-01T05:06:58;98942.41;;;13.28;100.00
2184;BME280;1098;48.940;8.962;2022-09-01T05:09:33;98946.91;;;13.58;100.00
2184;BME280;1098;48.940;8.962;2022-09-01T05:12:10;98928.84;;;13.28;100.00
2184;BME280;1098;48.940;8.962;2022-09-01T05:14:46;98930.72;;;13.28;100.00
2184;BME280;1098;48.940;8.962;2022-09-01T05:17:18;98936.25;;;13.33;100.00
2184;BME280;1098;48.940;8.962;2022-09-01T05:19:48;98932.63;;;13.62;100.00
2184;BME280;1098;48.940;8.962;2022-09-01T05:22:17;98934.16;;;13.47;100.00
2184;BME280;1098;48.940;8.962;2022-09-01T05:24:56;98933.09;;;13.59;100.00
2184;BME280;1098;48.940;8.962;2022-09-01T05:27:28;98929.56;;;13.82;100.00
2184;BME280;1098;48.940;8.962;2022-09-01T05:29:58;98929.91;;;13.74;100.00
2184;BME280;1098;48.940;8.962;2022-09-01T05:32:27;98929.41;;;14.00;100.00
2184;BME280;1098;48.940;8.962;2022-09-01T05:34:56;98923.03;;;14.06;100.00
2184;BME280;1098;48.940;8.962;2022-09-01T05:37:24;98923.03;;;13.95;100.00
2184;BME280;1098;48.940;8.962;2022-09-01T05:39:56;98924.06;;;14.17;100.00
2184;BME280;1098;48.940;8.962;2022-09-01T05:42:24;98927.44;;;14.36;100.00
2184;BME280;1098;48.940;8.962;2022-09-01T05:44:53;98911.34;;;14.58;100.00
2184;BME280;1098;48.940;8.962;2022-09-01T05:47:23;98915.19;;;14.73;100.00
2184;BME280;1098;48.940;8.962;2022-09-01T05:49:52;98908.53;;;14.81;100.00
2184;BME280;1098;48.940;8.962;2022-09-01T05:52:24;98903.34;;;14.39;100.00
2184;BME280;1098;48.940;8.962;2022-09-01T05:54:53;98905.38;;;14.44;100.00
2184;BME280;1098;48.940;8.962;2022-09-01T05:57:24;98901.34;;;14.47;100.00
2184;BME280;1098;48.940;8.962;2022-09-01T06:00:03;98913.56;;;14.21;100.00
2184;BME280;1098;48.940;8.962;2022-09-01T06:02:40;98906.72;;;14.58;100.00
2184;BME280;1098;48.940;8.962;2022-09-01T06:05:15;98913.78;;;14.71;100.00
2184;BME280;1098;48.940;8.962;2022-09-01T06:07:45;98852.91;;;16.92;100.00
2184;BME280;1098;48.940;8.962;2022-09-01T06:10:13;98772.75;;;17.97;100.00
2184;BME280;1098;48.940;8.962;2022-09-01T06:12:42;98760.63;;;18.76;100.00
2184;BME280;1098;48.940;8.962;2022-09-01T06:15:15;98748.59;;;18.77;100.00
2184;BME280;1098;48.940;8.962;2022-09-01T06:17:49;98738.84;;;20.25;100.00
2184;BME280;1098;48.940;8.962;2022-09-01T06:20:18;98737.22;;;19.70;100.00
2184;BME280;1098;48.940;8.962;2022-09-01T06:22:49;98746.63;;;19.13;100.00
2184;BME280;1098;48.940;8.962;2022-09-01T06:25:19;98775.91;;;17.69;100.00
2184;BME280;1098;48.940;8.962;2022-09-01T06:27:48;98813.91;;;15.72;100.00
2184;BME280;1098;48.940;8.962;2022-09-01T06:30:19;98766.00;;;19.72;100.00
2184;BME280;1098;48.940;8.962;2022-09-01T06:33:09;98804.00;;;16.31;100.00
2184;BME280;1098;48.940;8.962;2022-09-01T06:35:42;98844.78;;;15.99;100.00
2184;BME280;1098;48.940;8.962;2022-09-01T06:38:14;98850.25;;;15.99;100.00
2184;BME280;1098;48.940;8.962;2022-09-01T06:40:45;98849.81;;;15.69;100.00
2184;BME280;1098;48.940;8.962;2022-09-01T06:43:17;98855.97;;;15.81;100.00
2184;BME280;1098;48.940;8.962;2022-09-01T06:45:49;98865.84;;;15.48;100.00
2184;BME280;1098;48.940;8.962;2022-09-01T06:48:26;98869.91;;;15.85;100.00
2184;BME280;1098;48.940;8.962;2022-09-01T06:51:08;98864.56;;;16.11;100.00
2184;BME280;1098;48.940;8.962;2022-09-01T06:53:44;98855.13;;;15.97;100.00
2184;BME280;1098;48.940;8.962;2022-09-01T06:56:16;98872.94;;;15.66;100.00
2184;BME280;1098;48.940;8.962;2022-09-01T06:58:45;98871.72;;;15.96;100.00
2184;BME280;1098;48.940;8.962;2022-09-01T07:01:15;98866.28;;;16.18;100.00
2184;BME280;1098;48.940;8.962;2022-09-01T07:03:48;98855.72;;;16.26;100.00
2184;BME280;1098;48.940;8.962;2022-09-01T07:06:47;98849.69;;;16.68;100.00
2184;BME280;1098;48.940;8.962;2022-09-01T07:09:45;98845.09;;;17.00;100.00
2184;BME280;1098;48.940;8.962;2022-09-01T07:12:37;98841.19;;;17.28;100.00
2184;BME280;1098;48.940;8.962;2022-09-01T07:15:27;98832.00;;;17.02;100.00
2184;BME280;1098;48.940;8.962;2022-09-01T07:18:19;98842.66;;;17.04;100.00
2184;BME280;1098;48.940;8.962;2022-09-01T07:20:50;98837.72;;;17.38;100.00
2184;BME280;1098;48.940;8.962;2022-09-01T07:23:40;98830.97;;;17.45;100.00
2184;BME280;1098;48.940;8.962;2022-09-01T07:26:30;98829.47;;;17.70;100.00
2184;BME280;1098;48.940;8.962;2022-09-01T07:29:00;98819.41;;;17.75;100.00
2184;BME280;1098;48.940;8.962;2022-09-01T07:31:33;98827.81;;;17.64;100.00
2184;BME280;1098;48.940;8.962;2022-09-01T07:34:24;98829.13;;;18.03;100.00
2184;BME280;1098;48.940;8.962;2022-09-01T07:37:14;98830.78;;;17.62;100.00
2184;BME280;1098;48.940;8.962;2022-09-01T07:40:04;98819.28;;;18.12;100.00
2184;BME280;1098;48.940;8.962;2022-09-01T07:43:14;98813.28;;;18.15;100.00
2184;BME280;1098;48.940;8.962;2022-09-01T07:46:04;98811.19;;;18.43;100.00
2184;BME280;1098;48.940;8.962;2022-09-01T07:48:54;98807.22;;;19.11;100.00
2184;BME280;1098;48.940;8.962;2022-09-01T07:51:44;98792.66;;;18.65;100.00
2184;BME280;1098;48.940;8.962;2022-09-01T07:54:19;98799.78;;;18.97;100.00
2184;BME280;1098;48.940;8.962;2022-09-01T07:56:50;98794.88;;;18.88;100.00
2184;BME280;1098;48.940;8.962;2022-09-01T07:59:22;98786.09;;;19.07;100.00
2184;BME280;1098;48.940;8.962;2022-09-01T08:01:57;98792.41;;;18.82;100.00
2184;BME280;1098;48.940;8.962;2022-09-01T08:04:26;98796.50;;;18.69;100.00
2184;BME280;1098;48.940;8.962;2022-09-01T08:06:54;98787.69;;;19.59;100.00
2184;BME280;1098;48.940;8.962;2022-09-01T08:09:24;98792.13;;;19.24;100.00
2184;BME280;1098;48.940;8.962;2022-09-01T08:12:06;98792.13;;;19.04;100.00
2184;BME280;1098;48.940;8.962;2022-09-01T08:14:52;98787.81;;;19.98;100.00
2184;BME280;1098;48.940;8.962;2022-09-01T08:17:43;98789.72;;;20.12;100.00
2184;BME280;1098;48.940;8.962;2022-09-01T08:20:21;98784.59;;;20.50;100.00
2184;BME280;1098;48.940;8.962;2022-09-01T08:23:10;98784.03;;;19.94;100.00
2184;BME280;1098;48.940;8.962;2022-09-01T08:25:41;98794.28;;;19.42;100.00
2184;BME280;1098;48.940;8.962;2022-09-01T08:28:10;98787.69;;;19.69;100.00
2184;BME280;1098;48.940;8.962;2022-09-01T08:30:40;98784.34;;;19.77;100.00
2184;BME280;1098;48.940;8.962;2022-09-01T08:33:19;98779.97;;;20.79;100.00
2184;BME280;1098;48.940;8.962;2022-09-01T08:35:48;98773.25;;;20.96;100.00
2184;BME280;1098;48.940;8.962;2022-09-01T08:38:17;98778.09;;;21.09;100.00
2184;BME280;1098;48.940;8.962;2022-09-01T08:40:51;98775.91;;;20.22;100.00
2184;BME280;1098;48.940;8.962;2022-09-01T08:43:26;98774.03;;;20.67;100.00
2184;BME280;1098;48.940;8.962;2022-09-01T08:46:00;98775.56;;;19.75;100.00
2184;BME280;1098;48.940;8.962;2022-09-01T08:48:33;98782.63;;;19.96;100.00
2184;BME280;1098;48.940;8.962;2022-09-01T08:51:25;98772.97;;;20.58;100.00
2184;BME280;1098;48.940;8.962;2022-09-01T08:54:00;98777.69;;;21.25;100.00
2184;BME280;1098;48.940;8.962;2022-09-01T08:56:30;98776.38;;;20.84;100.00
2184;BME280;1098;48.940;8.962;2022-09-01T08:59:02;98780.25;;;20.39;100.00
2184;BME280;1098;48.940;8.962;2022-09-01T09:01:53;98779.88;;;20.55;100.00
2184;BME280;1098;48.940;8.962;2022-09-01T09:04:32;98789.25;;;20.49;100.00
2184;BME280;1098;48.940;8.962;2022-09-01T09:07:04;98779.13;;;20.40;100.00
2184;BME280;1098;48.940;8.962;2022-09-01T09:09:40;98783.59;;;20.25;100.00
2184;BME280;1098;48.940;8.962;2022-09-01T09:12:25;98787.25;;;20.60;100.00
2184;BME280;1098;48.940;8.962;2022-09-01T09:15:00;98784.50;;;20.60;100.00
2184;BME280;1098;48.940;8.962;2022-09-01T09:17:34;98782.44;;;20.42;100.00
2184;BME280;1098;48.940;8.962;2022-09-01T09:20:04;98791.91;;;20.05;100.00
2184;BME280;1098;48.940;8.962;2022-09-01T09:22:33;98781.94;;;21.08;100.00
2184;BME280;1098;48.940;8.962;2022-09-01T09:25:02;98780.00;;;21.90;100.00
2184;BME280;1098;48.940;8.962;2022-09-01T09:27:36;98779.41;;;21.16;100.00
2184;BME280;1098;48.940;8.962;2022-09-01T09:30:06;98782.19;;;21.11;100.00
2184;BME280;1098;48.940;8.962;2022-09-01T09:32:42;98777.97;;;21.24;100.00
2184;BME280;1098;48.940;8.962;2022-09-01T09:35:32;98781.06;;;20.39;100.00
2184;BME280;1098;48.940;8.962;2022-09-01T09:38:15;98775.91;;;21.06;100.00
2184;BME280;1098;48.940;8.962;2022-09-01T09:40:57;98780.09;;;20.15;100.00
2184;BME280;1098;48.940;8.962;2022-09-01T09:43:46;98778.66;;;21.06;100.00
2184;BME280;1098;48.940;8.962;2022-09-01T09:46:19;98783.44;;;21.29;100.00
2184;BME280;1098;48.940;8.962;2022-09-01T09:49:08;98773.97;;;21.64;100.00
2184;BME280;1098;48.940;8.962;2022-09-01T09:51:37;98777.78;;;21.44;100.00
2184;BME280;1098;48.940;8.962;2022-09-01T09:54:12;98773.97;;;20.77;100.00
2184;BME280;1098;48.940;8.962;2022-09-01T09:56:41;98771.31;;;21.30;100.00
2184;BME280;1098;48.940;8.962;2022-09-01T09:59:18;98776.53;;;21.60;100.00
2184;BME280;1098;48.940;8.962;2022-09-01T10:02:22;98774.38;;;20.95;100.00
2184;BME280;1098;48.940;8.962;2022-09-01T10:04:54;98765.34;;;21.76;100.00
2184;BME280;1098;48.940;8.962;2022-09-01T10:07:24;98769.69;;;21.29;100.00
2184;BME280;1098;48.940;8.962;2022-09-01T10:09:53;98770.06;;;21.46;100.00
2184;BME280;1098;48.940;8.962;2022-09-01T10:12:22;98760.63;;;20.95;100.00
2184;BME280;1098;48.940;8.962;2022-09-01T10:14:53;98765.53;;;21.60;100.00
2184;BME280;1098;48.940;8.962;2022-09-01T10:17:24;98767.06;;;21.43;100.00
2184;BME280;1098;48.940;8.962;2022-09-01T10:19:58;98770.06;;;20.83;100.00
2184;BME280;1098;48.940;8.962;2022-09-01T10:22:33;98771.72;;;20.79;100.00
2184;BME280;1098;48.940;8.962;2022-09-01T10:25:02;98774.69;;;21.22;100.00
2184;BME280;1098;48.940;8.962;2022-09-01T10:27:32;98771.28;;;21.35;100.00
2184;BME280;1098;48.940;8.962;2022-09-01T10:30:07;98772.19;;;21.54;100.00
2184;BME280;1098;48.940;8.962;2022-09-01T10:32:40;98767.38;;;22.32;100.00
2184;BME280;1098;48.940;8.962;2022-09-01T10:35:18;98769.19;;;21.22;100.00
2184;BME280;1098;48.940;8.962;2022-09-01T10:37:49;98775.50;;;21.51;100.00
2184;BME280;1098;48.940;8.962;2022-09-01T10:40:19;98768.38;;;21.98;100.00
2184;BME280;1098;48.940;8.962;2022-09-01T10:45:45;98772.28;;;21.92;100.00
2184;BME280;1098;48.940;8.962;2022-09-01T10:48:22;98762.88;;;21.98;100.00
2184;BME280;1098;48.940;8.962;2022-09-01T10:57:06;98758.72;;;21.24;100.00
2184;BME280;1098;48.940;8.962;2022-09-01T10:59:38;98759.47;;;21.82;100.00
2184;BME280;1098;48.940;8.962;2022-09-01T11:02:22;98740.34;;;21.48;100.00
2184;BME280;1098;48.940;8.962;2022-09-01T11:05:11;98744.47;;;22.17;100.00
2184;BME280;1098;48.940;8.962;2022-09-01T11:07:40;98751.84;;;23.11;100.00
2184;BME280;1098;48.940;8.962;2022-09-01T11:10:32;98751.31;;;23.41;100.00
2184;BME280;1098;48.940;8.962;2022-09-01T11:13:20;98746.63;;;22.20;100.00
2184;BME280;1098;48.940;8.962;2022-09-01T11:15:50;98742.06;;;22.67;100.00
2184;BME280;1098;48.940;8.962;2022-09-01T11:18:23;98741.94;;;22.77;100.00
2184;BME280;1098;48.940;8.962;2022-09-01T11:21:02;98740.25;;;23.27;100.00
2184;BME280;1098;48.940;8.962;2022-09-01T11:23:41;98744.38;;;21.80;100.00
2184;BME280;1098;48.940;8.962;2022-09-01T11:28:55;98727.56;;;22.05;100.00
2184;BME280;1098;48.940;8.962;2022-09-01T11:31:30;98723.69;;;22.25;100.00
2184;BME280;1098;48.940;8.962;2022-09-01T11:34:08;98736.56;;;21.87;100.00
2184;BME280;1098;48.940;8.962;2022-09-01T11:36:44;98721.47;;;22.27;100.00
2184;BME280;1098;48.940;8.962;2022-09-01T11:39:20;98732.84;;;21.78;100.00
2184;BME280;1098;48.940;8.962;2022-09-01T11:41:57;98730.44;;;21.47;100.00
2184;BME280;1098;48.940;8.962;2022-09-01T11:44:33;98725.72;;;22.01;100.00
2184;BME280;1098;48.940;8.962;2022-09-01T11:47:04;98731.81;;;21.74;100.00
2184;BME280;1098;48.940;8.962;2022-09-01T11:49:47;98711.28;;;22.27;100.00
2184;BME280;1098;48.940;8.962;2022-09-01T11:52:16;98713.09;;;22.70;100.00
2184;BME280;1098;48.940;8.962;2022-09-01T11:54:47;98712.03;;;23.17;100.00
2184;BME280;1098;48.940;8.962;2022-09-01T11:57:20;98716.53;;;23.13;100.00
2184;BME280;1098;48.940;8.962;2022-09-01T11:59:49;98715.44;;;22.06;100.00
2184;BME280;1098;48.940;8.962;2022-09-01T12:02:18;98720.81;;;22.16;100.00
2184;BME280;1098;48.940;8.962;2022-09-01T12:04:48;98712.41;;;21.84;100.00
2184;BME280;1098;48.940;8.962;2022-09-01T12:07:24;98715.13;;;21.65;100.00
2184;BME280;1098;48.940;8.962;2022-09-01T12:09:54;98709.53;;;21.94;100.00
2184;BME280;1098;48.940;8.962;2022-09-01T12:12:27;98703.53;;;22.29;100.00
2184;BME280;1098;48.940;8.962;2022-09-01T12:14:55;98704.06;;;22.32;100.00
2184;BME280;1098;48.940;8.962;2022-09-01T12:17:32;98707.47;;;22.05;100.00
2184;BME280;1098;48.940;8.962;2022-09-01T12:20:22;98699.41;;;21.89;100.00
2184;BME280;1098;48.940;8.962;2022-09-01T12:22:55;98704.28;;;21.26;100.00
2184;BME280;1098;48.940;8.962;2022-09-01T12:25:24;98694.25;;;22.07;100.00
2184;BME280;1098;48.940;8.962;2022-09-01T12:27:55;98685.22;;;22.57;100.00
2184;BME280;1098;48.940;8.962;2022-09-01T12:30:24;98686.53;;;22.79;100.00
2184;BME280;1098;48.940;8.962;2022-09-01T12:32:52;98685.75;;;23.66;100.00
2184;BME280;1098;48.940;8.962;2022-09-01T12:35:42;98695.50;;;23.99;100.00
2184;BME280;1098;48.940;8.962;2022-09-01T12:38:27;98685.91;;;23.96;100.00
2184;BME280;1098;48.940;8.962;2022-09-01T12:40:56;98682.06;;;23.70;100.00
2184;BME280;1098;48.940;8.962;2022-09-01T12:43:26;98690.38;;;22.96;100.00
2184;BME280;1098;48.940;8.962;2022-09-01T12:45:55;98689.41;;;23.88;100.00
2184;BME280;1098;48.940;8.962;2022-09-01T12:48:26;98689.44;;;23.61;100.00
2184;BME280;1098;48.940;8.962;2022-09-01T12:50:58;98679.78;;;23.31;100.00
2184;BME280;1098;48.940;8.962;2022-09-01T12:53:28;98680.81;;;23.90;100.00
2184;BME280;1098;48.940;8.962;2022-09-01T12:56:04;98675.53;;;24.74;100.00
2184;BME280;1098;48.940;8.962;2022-09-01T12:58:33;98682.88;;;25.01;96.27
2184;BME280;1098;48.940;8.962;2022-09-01T13:01:03;98679.00;;;24.57;91.58
2184;BME280;1098;48.940;8.962;2022-09-01T13:03:41;98689.28;;;25.10;85.18
2184;BME280;1098;48.940;8.962;2022-09-01T13:06:11;98682.44;;;25.08;84.12
2184;BME280;1098;48.940;8.962;2022-09-01T13:08:39;98677.44;;;25.97;91.67
2184;BME280;1098;48.940;8.962;2022-09-01T13:11:09;98680.00;;;25.06;86.18
2184;BME280;1098;48.940;8.962;2022-09-01T13:13:40;98672.41;;;24.45;90.66
2184;BME280;1098;48.940;8.962;2022-09-01T13:16:08;98669.16;;;23.93;93.65
2184;BME280;1098;48.940;8.962;2022-09-01T13:18:39;98674.81;;;23.60;94.85
2184;BME280;1098;48.940;8.962;2022-09-01T13:21:30;98669.56;;;23.18;100.00
2184;BME280;1098;48.940;8.962;2022-09-01T13:23:58;98665.56;;;22.64;100.00
2184;BME280;1098;48.940;8.962;2022-09-01T13:26:27;98672.72;;;22.65;100.00
2184;BME280;1098;48.940;8.962;2022-09-01T13:28:57;98665.63;;;22.59;100.00
2184;BME280;1098;48.940;8.962;2022-09-01T13:31:25;98665.94;;;22.57;100.00
2184;BME280;1098;48.940;8.962;2022-09-01T13:33:56;98671.16;;;22.59;100.00
2184;BME280;1098;48.940;8.962;2022-09-01T13:36:45;98663.97;;;22.44;100.00
2184;BME280;1098;48.940;8.962;2022-09-01T13:39:18;98661.63;;;22.51;99.52
2184;BME280;1098;48.940;8.962;2022-09-01T13:41:47;98671.41;;;22.44;95.38
2184;BME280;1098;48.940;8.962;2022-09-01T13:44:17;98670.59;;;22.43;87.36
2184;BME280;1098;48.940;8.962;2022-09-01T13:46:45;98667.81;;;22.76;84.12
2184;BME280;1098;48.940;8.962;2022-09-01T13:49:39;98662.59;;;22.60;94.29
2184;BME280;1098;48.940;8.962;2022-09-01T13:52:28;98660.31;;;22.81;95.09
2184;BME280;1098;48.940;8.962;2022-09-01T13:55:02;98650.13;;;22.82;97.71
2184;BME280;1098;48.940;8.962;2022-09-01T13:57:33;98657.09;;;22.74;95.32